createdAt,value
2018-11-05T00:00:36.169Z,14.00
2018-11-05T00:03:05.140Z,12.03
2018-11-05T00:05:33.070Z,11.17
2018-11-05T00:08:00.930Z,9.47
2018-11-05T00:10:28.730Z,8.87
2018-11-05T00:12:56.538Z,7.50
2018-11-05T00:15:24.589Z,7.80
2018-11-05T00:17:52.435Z,7.83
2018-11-05T00:20:20.275Z,8.87
2018-11-05T00:22:52.318Z,9.87
2018-11-05T00:25:20.113Z,10.20
2018-11-05T00:27:47.916Z,10.63
2018-11-05T00:30:15.696Z,11.43
2018-11-05T00:32:43.850Z,12.27
2018-11-05T00:35:11.897Z,12.87
2018-11-05T00:37:39.785Z,13.97
2018-11-05T00:40:11.041Z,14.93
2018-11-05T00:42:39.013Z,15.00
2018-11-05T00:45:07.820Z,14.77
2018-11-05T00:47:35.656Z,15.23
2018-11-05T00:50:05.215Z,14.77
2018-11-05T00:52:32.974Z,15.37
2018-11-05T00:55:00.826Z,14.00
2018-11-05T00:57:28.602Z,14.63
2018-11-05T00:59:56.401Z,14.93
2018-11-05T01:02:24.157Z,15.87
2018-11-05T01:04:51.928Z,11.57
2018-11-05T01:07:19.684Z,12.20
2018-11-05T01:09:47.480Z,12.50
2018-11-05T01:12:15.257Z,12.20
2018-11-05T01:14:43.039Z,11.43
2018-11-05T01:17:10.804Z,12.50
2018-11-05T01:19:38.609Z,11.40
2018-11-05T01:22:06.401Z,9.93
2018-11-05T01:24:34.211Z,11.13
2018-11-05T01:27:02.034Z,12.90
2018-11-05T01:29:29.911Z,11.93
2018-11-05T01:31:57.664Z,13.27
2018-11-05T01:34:25.440Z,13.23
2018-11-05T01:36:53.313Z,13.07
2018-11-05T01:39:21.080Z,14.23
2018-11-05T01:41:48.852Z,13.77
2018-11-05T01:44:16.626Z,13.27
2018-11-05T01:46:44.409Z,11.73
2018-11-05T01:49:12.153Z,13.50
2018-11-05T01:51:39.936Z,15.50
2018-11-05T01:54:07.737Z,15.23
2018-11-05T01:56:35.529Z,17.00
2018-11-05T01:59:03.684Z,16.23
2018-11-05T02:01:31.476Z,17.97
2018-11-05T02:03:59.681Z,19.50
2018-11-05T02:06:27.444Z,19.17
2018-11-05T02:08:55.223Z,20.03
2018-11-05T02:11:23.045Z,20.37
2018-11-05T02:13:50.808Z,19.10
2018-11-05T02:16:18.608Z,20.93
2018-11-05T02:18:46.369Z,21.63
2018-11-05T02:21:14.388Z,21.73
2018-11-05T02:23:42.257Z,20.83
2018-11-05T02:26:10.029Z,21.07
2018-11-05T02:28:37.916Z,21.93
2018-11-05T02:31:05.765Z,21.83
2018-11-05T02:33:33.729Z,23.50
2018-11-05T02:36:01.517Z,22.17
2018-11-05T02:38:29.297Z,22.47
2018-11-05T02:40:57.068Z,23.47
2018-11-05T02:43:25.715Z,22.27
2018-11-05T02:45:53.473Z,23.03
2018-11-05T02:48:21.230Z,24.27
2018-11-05T02:50:49.023Z,24.27
2018-11-05T02:53:16.876Z,23.87
2018-11-05T02:55:44.641Z,25.63
2018-11-05T02:58:12.420Z,25.07
2018-11-05T03:00:40.234Z,24.73
2018-11-05T03:03:08.210Z,22.33
2018-11-05T03:05:36.013Z,24.10
2018-11-05T03:08:03.824Z,21.77
2018-11-05T03:10:31.617Z,23.77
2018-11-05T03:12:59.395Z,23.63
2018-11-05T03:15:27.149Z,22.80
2018-11-05T03:17:54.916Z,21.17
2018-11-05T03:20:22.694Z,21.90
2018-11-05T03:22:50.477Z,17.63
2018-11-05T03:25:18.237Z,18.37
2018-11-05T03:27:46.064Z,17.00
2018-11-05T03:30:15.324Z,15.33
2018-11-05T03:32:43.101Z,15.03
2018-11-05T03:35:11.997Z,14.43
2018-11-05T03:37:40.881Z,14.10
2018-11-05T03:40:09.524Z,12.33
2018-11-05T03:42:37.721Z,12.70
2018-11-05T03:45:06.385Z,11.43
2018-11-05T03:47:34.169Z,11.63
2018-11-05T03:50:01.939Z,11.17
2018-11-05T03:52:29.755Z,10.10
2018-11-05T03:54:57.557Z,10.53
2018-11-05T03:57:25.668Z,10.47
2018-11-05T03:59:53.613Z,10.27
2018-11-05T04:02:21.457Z,9.87
2018-11-05T04:04:49.233Z,10.10
2018-11-05T04:07:17.197Z,9.67
2018-11-05T04:09:44.989Z,10.10
2018-11-05T04:12:12.725Z,9.90
2018-11-05T04:14:40.533Z,10.47
2018-11-05T04:17:08.316Z,10.37
2018-11-05T04:19:36.089Z,10.23
2018-11-05T04:22:03.864Z,10.33
2018-11-05T04:24:31.629Z,10.23
2018-11-05T04:27:00.656Z,9.73
2018-11-05T04:29:28.444Z,10.50
2018-11-05T04:31:56.266Z,9.80
2018-11-05T04:34:24.137Z,10.30
2018-11-05T04:36:51.954Z,10.20
2018-11-05T04:39:19.793Z,8.70
2018-11-05T04:41:47.629Z,9.77
2018-11-05T04:44:15.429Z,9.90
2018-11-05T04:46:43.172Z,9.70
2018-11-05T04:49:11.484Z,10.53
2018-11-05T04:51:39.317Z,10.80
2018-11-05T04:54:07.434Z,10.80
2018-11-05T04:56:35.253Z,11.73
2018-11-05T04:59:03.049Z,10.87
2018-11-05T05:01:31.049Z,10.77
2018-11-05T05:03:59.569Z,14.80
2018-11-05T05:06:27.396Z,14.20
2018-11-05T05:08:55.285Z,12.30
2018-11-05T05:11:23.183Z,17.10
2018-11-05T05:13:51.299Z,38.47
2018-11-05T05:16:19.158Z,26.93
2018-11-05T05:18:47.252Z,33.40
2018-11-05T05:21:15.041Z,32.33
2018-11-05T05:23:42.841Z,30.57
2018-11-05T05:26:10.641Z,19.87
2018-11-05T05:28:38.432Z,16.77
2018-11-05T05:31:06.692Z,20.43
2018-11-05T05:33:34.585Z,22.43
2018-11-05T05:36:02.374Z,24.87
2018-11-05T05:38:30.195Z,22.17
2018-11-05T05:40:58.083Z,16.87
2018-11-05T05:43:25.941Z,15.93
2018-11-05T05:45:53.787Z,15.77
2018-11-05T05:48:21.728Z,15.67
2018-11-05T05:50:49.554Z,15.70
2018-11-05T05:53:17.309Z,16.83
2018-11-05T05:55:45.309Z,16.40
2018-11-05T05:58:13.629Z,14.13
2018-11-05T06:00:41.518Z,14.40
2018-11-05T06:03:09.333Z,13.93
2018-11-05T06:05:37.213Z,13.77
2018-11-05T06:08:05.306Z,13.77
2018-11-05T06:10:33.121Z,12.93
2018-11-05T06:13:00.947Z,12.97
2018-11-05T06:15:28.857Z,14.00
2018-11-05T06:17:56.692Z,13.60
2018-11-05T06:20:24.559Z,14.30
2018-11-05T06:22:52.313Z,14.17
2018-11-05T06:25:20.141Z,15.20
2018-11-05T06:27:47.921Z,16.40
2018-11-05T06:30:18.431Z,18.80
2018-11-05T06:32:47.026Z,15.13
2018-11-05T06:35:15.411Z,15.53
2018-11-05T06:37:44.049Z,17.50
2018-11-05T06:40:13.657Z,16.07
2018-11-05T06:42:41.965Z,16.30
2018-11-05T06:45:12.012Z,16.43
2018-11-05T06:47:41.026Z,16.47
2018-11-05T06:50:16.948Z,16.60
2018-11-05T06:52:45.105Z,16.50
2018-11-05T06:55:13.592Z,17.87
2018-11-05T06:57:41.588Z,16.97
2018-11-05T07:00:12.033Z,17.97
2018-11-05T07:02:39.992Z,17.37
2018-11-05T07:05:07.733Z,16.80
2018-11-05T07:07:35.593Z,16.70
2018-11-05T07:10:03.847Z,16.70
2018-11-05T07:12:31.708Z,17.37
2018-11-05T07:14:59.493Z,16.57
2018-11-05T07:17:27.341Z,17.33
2018-11-05T07:19:55.453Z,19.57
2018-11-05T07:22:23.331Z,16.77
2018-11-05T07:24:51.128Z,16.17
2018-11-05T07:27:18.977Z,16.53
2018-11-05T07:29:46.845Z,17.50
2018-11-05T07:32:14.669Z,18.37
2018-11-05T07:34:42.446Z,17.70
2018-11-05T07:37:10.327Z,16.60
2018-11-05T07:39:38.084Z,19.77
2018-11-05T07:42:05.892Z,19.17
2018-11-05T07:44:33.982Z,19.03
2018-11-05T07:47:02.054Z,17.57
2018-11-05T07:49:29.859Z,19.70
2018-11-05T07:51:57.761Z,19.57
2018-11-05T07:54:25.617Z,18.40
2018-11-05T07:56:53.619Z,17.93
2018-11-05T07:59:21.377Z,16.90
2018-11-05T08:01:49.289Z,16.80
2018-11-05T08:04:17.057Z,15.37
2018-11-05T08:06:44.812Z,15.87
2018-11-05T08:09:12.792Z,15.83
2018-11-05T08:11:40.956Z,14.43
2018-11-05T08:14:09.882Z,13.37
2018-11-05T08:16:37.789Z,13.13
2018-11-05T08:19:06.081Z,14.90
2018-11-05T08:21:33.853Z,13.27
2018-11-05T08:24:01.595Z,13.43
2018-11-05T08:26:29.395Z,13.80
2018-11-05T08:28:57.202Z,14.80
2018-11-05T08:31:25.164Z,14.27
2018-11-05T08:33:52.939Z,17.17
2018-11-05T08:36:20.741Z,16.87
2018-11-05T08:38:48.488Z,17.97
2018-11-05T08:41:16.252Z,16.23
2018-11-05T08:43:44.560Z,16.03
2018-11-05T08:46:12.350Z,15.60
2018-11-05T08:48:40.169Z,17.00
2018-11-05T08:51:08.123Z,17.73
2018-11-05T08:53:35.905Z,17.97
2018-11-05T08:56:04.050Z,17.83
2018-11-05T08:58:32.213Z,18.33
2018-11-05T09:01:05.520Z,17.90
2018-11-05T09:03:33.457Z,17.33
2018-11-05T09:06:01.275Z,16.93
2018-11-05T09:08:29.121Z,17.13
2018-11-05T09:10:57.268Z,15.80
2018-11-05T09:13:24.875Z,16.90
2018-11-05T09:15:52.657Z,16.77
2018-11-05T09:18:20.409Z,16.47
2018-11-05T09:20:48.367Z,16.43
2018-11-05T09:23:16.080Z,16.63
2018-11-05T09:25:43.832Z,15.80
2018-11-05T09:28:11.654Z,15.77
2018-11-05T09:30:39.425Z,15.20
2018-11-05T09:33:07.237Z,13.83
2018-11-05T09:35:35.041Z,13.03
2018-11-05T09:38:02.827Z,13.33
2018-11-05T09:40:30.611Z,12.50
2018-11-05T09:42:58.762Z,13.75
2018-11-05T09:45:27.785Z,12.20
2018-11-05T09:47:55.651Z,10.28
2018-11-05T09:50:23.562Z,9.90
2018-11-05T09:52:51.349Z,9.80
2018-11-05T09:55:19.172Z,9.88
2018-11-05T09:57:46.928Z,9.00
2018-11-05T10:00:18.166Z,9.70
2018-11-05T10:02:51.715Z,10.13
2018-11-05T10:05:19.617Z,9.85
2018-11-05T10:07:47.255Z,17.98
2018-11-05T10:10:16.588Z,18.92
2018-11-05T10:12:44.361Z,17.87
2018-11-05T10:15:13.033Z,17.82
2018-11-05T10:17:40.980Z,17.60
2018-11-05T10:20:12.569Z,18.62
2018-11-05T10:22:40.477Z,18.75
2018-11-05T10:25:09.905Z,18.05
2018-11-05T10:27:37.925Z,19.80
2018-11-05T10:30:09.118Z,19.85
2018-11-05T10:32:36.968Z,20.23
2018-11-05T10:35:04.838Z,18.00
2018-11-05T10:37:32.660Z,18.70
2018-11-05T10:40:00.486Z,18.17
2018-11-05T10:42:28.285Z,17.40
2018-11-05T10:44:56.262Z,16.05
2018-11-05T10:47:24.055Z,16.70
2018-11-05T10:49:51.844Z,16.27
2018-11-05T10:52:19.656Z,16.90
2018-11-05T10:54:47.459Z,16.40
2018-11-05T10:57:15.213Z,18.23
2018-11-05T10:59:42.997Z,16.57
2018-11-05T11:04:22.046Z,16.40
2018-11-05T11:06:49.795Z,14.57
2018-11-05T11:09:17.569Z,15.60
2018-11-05T11:11:45.323Z,15.53
2018-11-05T11:14:13.108Z,15.57
2018-11-05T11:16:40.904Z,15.33
2018-11-05T11:19:08.691Z,15.57
2018-11-05T11:21:36.512Z,15.20
2018-11-05T11:24:04.686Z,15.83
2018-11-05T11:26:32.476Z,14.87
2018-11-05T11:29:00.319Z,15.27
2018-11-05T11:31:28.136Z,15.03
2018-11-05T11:33:55.977Z,15.10
2018-11-05T11:36:23.760Z,15.27
2018-11-05T11:38:51.541Z,13.83
2018-11-05T11:41:19.341Z,14.00
2018-11-05T11:43:47.134Z,14.47
2018-11-05T11:46:15.041Z,14.33
2018-11-05T11:48:42.873Z,14.73
2018-11-05T11:51:10.665Z,13.90
2018-11-05T11:53:38.460Z,14.43
2018-11-05T11:56:06.297Z,13.83
2018-11-05T11:58:34.090Z,14.87
2018-11-05T12:01:01.877Z,14.33
2018-11-05T12:03:29.637Z,15.10
2018-11-05T12:05:57.449Z,14.57
2018-11-05T12:08:25.283Z,14.77
2018-11-05T12:10:53.080Z,16.00
2018-11-05T12:13:20.862Z,15.83
2018-11-05T12:15:48.645Z,15.37
2018-11-05T12:18:16.493Z,16.33
2018-11-05T12:20:44.303Z,16.03
2018-11-05T12:23:12.052Z,16.13
2018-11-05T12:25:39.953Z,16.33
2018-11-05T12:28:07.789Z,16.57
2018-11-05T12:30:36.129Z,16.20
2018-11-05T12:33:04.071Z,16.43
2018-11-05T12:35:31.861Z,17.57
2018-11-05T12:37:59.716Z,16.30
2018-11-05T12:40:27.695Z,16.93
2018-11-05T12:42:55.481Z,17.03
2018-11-05T12:45:23.268Z,16.13
2018-11-05T12:47:51.037Z,18.10
2018-11-05T12:50:22.925Z,17.33
2018-11-05T12:52:51.781Z,17.03
2018-11-05T12:55:19.549Z,16.80
2018-11-05T12:57:47.645Z,17.10
2018-11-05T13:00:18.346Z,16.67
2018-11-05T13:02:51.756Z,17.37
2018-11-05T13:05:19.562Z,17.40
2018-11-05T13:07:47.657Z,16.67
2018-11-05T13:10:15.435Z,16.77
2018-11-05T13:12:43.223Z,17.33
2018-11-05T13:15:11.518Z,17.07
2018-11-05T13:17:39.886Z,18.37
2018-11-05T13:20:11.762Z,17.73
2018-11-05T13:22:39.791Z,16.83
2018-11-05T13:25:07.623Z,17.47
2018-11-05T13:27:35.431Z,18.13
2018-11-05T13:30:03.733Z,18.27
2018-11-05T13:32:31.537Z,18.17
2018-11-05T13:34:59.556Z,17.33
2018-11-05T13:37:27.670Z,18.57
2018-11-05T13:39:55.297Z,17.03
2018-11-05T13:42:23.114Z,19.53
2018-11-05T13:44:50.972Z,19.57
2018-11-05T13:47:19.489Z,20.40
2018-11-05T13:49:46.694Z,18.27
2018-11-05T13:52:14.584Z,17.33
2018-11-05T13:54:42.367Z,17.13
2018-11-05T13:57:10.077Z,17.73
2018-11-05T13:59:37.908Z,17.17
2018-11-05T14:02:05.758Z,16.97
2018-11-05T14:04:33.611Z,16.37
2018-11-05T14:07:01.397Z,16.63
2018-11-05T14:09:29.475Z,17.67
2018-11-05T14:11:57.316Z,17.70
2018-11-05T14:14:25.097Z,17.70
2018-11-05T14:16:52.941Z,17.37
2018-11-05T14:19:20.852Z,17.67
2018-11-05T14:21:48.732Z,18.27
2018-11-05T14:24:16.520Z,17.77
2018-11-05T14:26:44.337Z,17.40
2018-11-05T14:29:12.517Z,17.03
2018-11-05T14:31:39.953Z,17.20
2018-11-05T14:34:09.005Z,16.67
2018-11-05T14:36:36.995Z,17.07
2018-11-05T14:39:08.276Z,17.37
2018-11-05T14:41:36.065Z,17.57
2018-11-05T14:44:03.892Z,15.73
2018-11-05T14:46:31.676Z,17.70
2018-11-05T14:48:59.584Z,18.23
2018-11-05T14:51:27.401Z,18.67
2018-11-05T14:53:55.157Z,19.33
2018-11-05T14:56:22.937Z,19.10
2018-11-05T14:58:50.713Z,17.90
2018-11-05T15:01:18.502Z,17.60
2018-11-05T15:03:46.265Z,17.50
2018-11-05T15:06:14.089Z,17.30
2018-11-05T15:08:41.912Z,17.20
2018-11-05T15:11:09.689Z,18.93
2018-11-05T15:13:37.510Z,18.73
2018-11-05T15:16:05.525Z,18.00
2018-11-05T15:18:33.363Z,18.63
2018-11-05T15:21:01.254Z,18.90
2018-11-05T15:23:29.159Z,17.13
2018-11-05T15:25:57.009Z,17.30
2018-11-05T15:28:24.805Z,16.97
2018-11-05T15:30:52.593Z,17.17
2018-11-05T15:33:20.833Z,17.80
2018-11-05T15:35:49.246Z,28.67
2018-11-05T15:38:17.010Z,26.23
2018-11-05T15:40:44.793Z,20.57
2018-11-05T15:43:12.655Z,18.30
2018-11-05T15:45:40.470Z,19.47
2018-11-05T15:48:08.273Z,19.70
2018-11-05T15:50:36.049Z,20.33
2018-11-05T15:53:04.242Z,18.70
2018-11-05T15:55:31.857Z,19.10
2018-11-05T15:57:59.882Z,21.17
2018-11-05T16:00:27.673Z,20.07
2018-11-05T16:02:57.828Z,28.60
2018-11-05T16:05:25.666Z,26.50
2018-11-05T16:07:53.461Z,27.57
2018-11-05T16:10:21.309Z,26.10
2018-11-05T16:12:49.209Z,24.57
2018-11-05T16:15:16.973Z,22.20
2018-11-05T16:17:44.774Z,21.40
2018-11-05T16:20:14.070Z,19.80
2018-11-05T16:22:42.081Z,19.70
2018-11-05T16:25:09.974Z,19.93
2018-11-05T16:27:37.813Z,25.20
2018-11-05T16:30:08.227Z,27.60
2018-11-05T16:32:35.977Z,29.17
2018-11-05T16:35:04.094Z,29.50
2018-11-05T16:37:31.809Z,28.97
2018-11-05T16:39:59.813Z,28.10
2018-11-05T16:42:27.608Z,29.03
2018-11-05T16:44:55.489Z,27.00
2018-11-05T16:47:23.324Z,30.00
2018-11-05T16:49:51.089Z,28.93
2018-11-05T16:52:18.857Z,29.70
2018-11-05T16:54:46.679Z,32.87
2018-11-05T16:57:14.474Z,35.80
2018-11-05T16:59:42.310Z,38.23
2018-11-05T17:02:13.357Z,42.07
2018-11-05T17:04:41.329Z,46.53
2018-11-05T17:07:09.375Z,48.93
2018-11-05T17:09:37.148Z,51.37
2018-11-05T17:12:05.489Z,48.67
2018-11-05T17:14:33.249Z,51.33
2018-11-05T17:17:01.068Z,43.00
2018-11-05T17:19:29.218Z,41.07
2018-11-05T17:21:57.025Z,37.10
2018-11-05T17:24:24.833Z,35.57
2018-11-05T17:26:52.577Z,33.83
2018-11-05T17:29:20.383Z,37.97
2018-11-05T17:31:48.215Z,43.77
2018-11-05T17:34:16.054Z,45.20
2018-11-05T17:36:43.984Z,44.17
2018-11-05T17:39:12.790Z,38.63
2018-11-05T17:41:40.981Z,36.37
2018-11-05T17:44:10.954Z,36.90
2018-11-05T17:46:38.819Z,39.30
2018-11-05T17:49:07.740Z,40.77
2018-11-05T17:51:35.657Z,42.67
2018-11-05T17:54:03.532Z,44.00
2018-11-05T17:56:31.406Z,40.87
2018-11-05T17:58:59.386Z,39.40
2018-11-05T18:01:27.197Z,37.57
2018-11-05T18:03:55.044Z,35.03
2018-11-05T18:06:22.849Z,34.63
2018-11-05T18:08:50.726Z,33.17
2018-11-05T18:11:18.769Z,35.93
2018-11-05T18:13:46.532Z,38.93
2018-11-05T18:16:14.289Z,36.33
2018-11-05T18:18:42.339Z,35.33
2018-11-05T18:21:10.165Z,37.40
2018-11-05T18:23:38.083Z,35.47
2018-11-05T18:26:05.877Z,37.00
2018-11-05T18:28:33.690Z,36.50
2018-11-05T18:31:01.569Z,33.87
2018-11-05T18:33:29.299Z,31.50
2018-11-05T18:35:57.064Z,30.57
2018-11-05T18:38:24.849Z,26.23
2018-11-05T18:40:52.641Z,27.87
2018-11-05T18:43:20.452Z,30.93
2018-11-05T18:45:48.384Z,28.27
2018-11-05T18:48:16.713Z,22.87
2018-11-05T18:50:44.513Z,20.57
2018-11-05T18:53:12.262Z,21.20
2018-11-05T18:55:40.068Z,19.27
2018-11-05T18:58:07.909Z,14.63
2018-11-05T19:00:35.728Z,11.03
2018-11-05T19:03:03.672Z,9.40
2018-11-05T19:05:31.522Z,9.60
2018-11-05T19:07:59.503Z,16.83
2018-11-05T19:10:27.300Z,22.17
2018-11-05T19:12:55.057Z,24.50
2018-11-05T19:15:22.829Z,25.77
2018-11-05T19:17:50.848Z,26.97
2018-11-05T19:20:18.736Z,27.73
2018-11-05T19:22:46.738Z,24.93
2018-11-05T19:25:15.142Z,23.73
2018-11-05T19:27:43.677Z,19.83
2018-11-05T19:30:26.489Z,18.10
2018-11-05T19:32:54.323Z,17.47
2018-11-05T19:35:22.190Z,19.63
2018-11-05T19:37:50.061Z,18.33
2018-11-05T19:40:18.409Z,12.50
2018-11-05T19:42:46.982Z,7.90
2018-11-05T19:45:16.408Z,5.03
2018-11-05T19:47:44.347Z,4.30
2018-11-05T19:50:15.482Z,4.60
2018-11-05T19:52:44.001Z,4.30
2018-11-05T19:55:12.858Z,5.10
2018-11-05T19:57:41.523Z,4.60
2018-11-05T20:00:15.380Z,4.93
2018-11-05T20:02:43.447Z,4.50
2018-11-05T20:05:11.457Z,4.40
2018-11-05T20:07:39.324Z,4.53
2018-11-05T20:10:07.744Z,4.50
2018-11-05T20:12:35.591Z,4.00
2018-11-05T20:15:03.562Z,4.23
2018-11-05T20:17:31.910Z,3.90
2018-11-05T20:19:59.997Z,3.90
2018-11-05T20:22:27.883Z,3.90
2018-11-05T20:24:55.590Z,3.70
2018-11-05T20:27:23.409Z,3.70
2018-11-05T20:29:51.208Z,3.90
2018-11-05T20:32:19.477Z,3.37
2018-11-05T20:34:46.809Z,3.57
2018-11-05T20:37:14.593Z,3.67
2018-11-05T20:39:42.444Z,5.27
2018-11-05T20:42:10.191Z,5.67
2018-11-05T20:44:37.989Z,3.37
2018-11-05T20:47:06.550Z,3.57
2018-11-05T20:49:34.380Z,3.83
2018-11-05T20:52:02.204Z,4.30
2018-11-05T20:54:30.093Z,3.97
2018-11-05T20:56:57.913Z,3.93
2018-11-05T20:59:25.696Z,4.13
2018-11-05T21:01:53.776Z,4.40
2018-11-05T21:04:21.549Z,4.60
2018-11-05T21:06:49.300Z,4.30
2018-11-05T21:09:17.118Z,3.63
2018-11-05T21:11:44.893Z,3.90
2018-11-05T21:14:12.674Z,4.10
2018-11-05T21:16:40.524Z,3.50
2018-11-05T21:19:08.271Z,3.77
2018-11-05T21:21:36.168Z,3.30
2018-11-05T21:24:04.131Z,3.43
2018-11-05T21:26:32.216Z,3.50
2018-11-05T21:29:03.653Z,3.50
2018-11-05T21:31:31.817Z,3.20
2018-11-05T21:36:27.552Z,3.30
2018-11-05T21:38:55.332Z,3.27
2018-11-05T21:41:23.152Z,2.53
2018-11-05T21:43:50.961Z,3.20
2018-11-05T21:46:18.828Z,3.20
2018-11-05T21:48:46.625Z,3.43
2018-11-05T21:51:14.617Z,3.20
2018-11-05T21:53:42.480Z,2.93
2018-11-05T21:56:10.329Z,3.33
2018-11-05T21:58:38.179Z,2.60
2018-11-05T22:01:06.049Z,2.90
2018-11-05T22:03:34.418Z,3.03
2018-11-05T22:06:02.236Z,3.13
2018-11-05T22:08:30.126Z,3.03
2018-11-05T22:10:57.928Z,3.30
2018-11-05T22:13:25.725Z,3.20
2018-11-05T22:15:53.595Z,2.70
2018-11-05T22:18:21.358Z,3.07
2018-11-05T22:20:49.177Z,2.80
2018-11-05T22:23:16.968Z,3.30
2018-11-05T22:25:44.788Z,2.83
2018-11-05T22:28:12.660Z,2.70
2018-11-05T22:30:40.541Z,2.50
2018-11-05T22:33:08.740Z,2.70
2018-11-05T22:35:36.699Z,3.03
2018-11-05T22:38:04.752Z,2.90
2018-11-05T22:40:32.712Z,3.00
2018-11-05T22:43:00.725Z,3.10
2018-11-05T22:45:28.528Z,2.90
2018-11-05T22:47:56.719Z,3.17
2018-11-05T22:50:24.683Z,3.10
2018-11-05T22:52:52.505Z,3.20
2018-11-05T22:55:20.325Z,3.20
2018-11-05T22:57:48.211Z,3.30
2018-11-05T23:00:22.443Z,2.97
2018-11-05T23:02:55.923Z,3.00
2018-11-05T23:05:24.325Z,2.80
2018-11-05T23:07:53.228Z,2.93
2018-11-05T23:10:21.457Z,3.03
2018-11-05T23:12:49.321Z,2.80
2018-11-05T23:15:17.548Z,3.10
2018-11-05T23:17:45.646Z,3.40
2018-11-05T23:20:13.458Z,2.97
2018-11-05T23:22:41.944Z,2.87
2018-11-05T23:25:09.890Z,2.60
2018-11-05T23:27:37.777Z,2.50
2018-11-05T23:30:07.870Z,2.53
2018-11-05T23:32:35.927Z,2.37
2018-11-05T23:35:03.829Z,2.60
2018-11-05T23:37:31.713Z,2.77
2018-11-05T23:39:59.572Z,2.50
2018-11-05T23:42:27.577Z,2.70
2018-11-05T23:44:55.392Z,2.47
2018-11-05T23:47:26.839Z,2.60
2018-11-05T23:49:56.492Z,2.90
2018-11-05T23:52:25.182Z,2.80
2018-11-05T23:54:53.069Z,2.50
2018-11-05T23:57:21.317Z,2.90
2018-11-05T23:59:49.173Z,2.80
